Terminal Aerodrome Forecast
Issued by NWS St Louis, MO

Home | Current Version | Previous Version | Text Only | Print | Product List | Glossary On
Versions: 1 2 3 4 5 6 7 8 9 10 11 12 13 14 15 16 17 18 19 20 21 22 23 24 25 26 27 28 29 30 31
000
FTUS43 KLSX 281500 AAA
TAFSTL
TAF AMD
KSTL 281519Z 2815/0118 11007KT P6SM OVC045
     FM282000 12007KT 1SM -SN OVC012
     FM010000 12005KT 1SM -SN OVC008
     FM011200 18005KT 3SM -SN BR OVC008=

USA.gov is the U.S. government's official web portal to all federal, state and local government web resources and services.